Time;durP1;ratioP1;P1;durP2;ratioP2;P2;SDS_P1;SDS_P2;PMS_P1;PMS_P2;Temp;Humidity;BMP_temperature;BMP_pressure;BME280_temperature;BME280_humidity;BME280_pressure;Samples;Min_cycle;Max_cycle;Signal;HPM_P1;HPM_P2
2023/10/03 00:01:15;;;;;;;13.23;7.68;;;17.30;99.90;;;;;;5105334;29;20035;-75
2023/10/03 00:03:46;;;;;;;9.57;6.93;;;17.30;99.90;;;;;;5104288;29;20454;-75
2023/10/03 00:06:17;;;;;;;14.68;6.85;;;17.30;99.90;;;;;;5105301;29;20015;-76
2023/10/03 00:08:48;;;;;;;13.43;7.65;;;17.30;99.90;;;;;;5103980;29;20024;-75
2023/10/03 00:11:20;;;;;;;13.70;7.90;;;17.40;99.90;;;;;;5105244;29;20756;-75
2023/10/03 00:13:51;;;;;;;10.88;7.60;;;17.50;99.90;;;;;;5105000;29;20171;-75
2023/10/03 00:16:22;;;;;;;14.55;7.68;;;17.40;99.90;;;;;;5104220;29;20147;-75
2023/10/03 00:18:52;;;;;;;13.73;8.82;;;17.50;99.90;;;;;;5105403;29;20103;-76
2023/10/03 00:21:23;;;;;;;16.17;8.43;;;17.50;99.90;;;;;;5103895;29;20062;-75
2023/10/03 00:23:54;;;;;;;15.32;8.43;;;17.40;99.90;;;;;;5105255;29;20032;-75
2023/10/03 00:26:28;;;;;;;15.98;8.70;;;17.50;99.90;;;;;;5104784;29;20054;-76
2023/10/03 00:28:59;;;;;;;16.92;9.10;;;17.40;99.90;;;;;;5104987;29;20119;-75
2023/10/03 00:31:30;;;;;;;13.43;9.10;;;17.60;99.90;;;;;;5105218;29;20110;-76
2023/10/03 00:34:01;;;;;;;13.43;9.15;;;17.50;99.90;;;;;;5104787;29;20184;-75
2023/10/03 00:36:32;;;;;;;22.35;8.57;;;17.60;99.90;;;;;;5103756;29;20024;-76
2023/10/03 00:39:06;;;;;;;18.98;9.20;;;17.50;99.90;;;;;;5103812;29;20054;-76
2023/10/03 00:41:37;;;;;;;18.67;9.07;;;17.50;99.90;;;;;;5104912;29;20024;-75
2023/10/03 00:44:10;;;;;;;18.73;9.45;;;17.40;99.90;;;;;;5105053;29;20031;-75
2023/10/03 00:46:40;;;;;;;17.48;9.10;;;17.40;99.90;;;;;;5103787;29;20055;-76
2023/10/03 00:49:14;;;;;;;14.18;9.05;;;17.60;99.90;;;;;;5104983;29;20103;-76
2023/10/03 00:51:46;;;;;;;19.30;9.85;;;17.60;99.90;;;;;;5104797;29;20572;-75
2023/10/03 00:54:17;;;;;;;16.60;9.13;;;17.40;99.90;;;;;;5104931;29;20053;-75
2023/10/03 00:56:49;;;;;;;13.40;8.65;;;17.50;99.90;;;;;;5103552;29;20030;-75
2023/10/03 00:59:20;;;;;;;13.85;7.47;;;17.60;99.90;;;;;;5104704;29;20419;-75
2023/10/03 01:01:52;;;;;;;13.57;7.35;;;17.30;99.90;;;;;;5103756;29;20032;-76
2023/10/03 01:04:30;;;;;;;12.50;7.07;;;17.40;99.90;;;;;;5104743;29;20111;-75
2023/10/03 01:07:01;;;;;;;13.50;6.43;;;17.30;99.90;;;;;;5103789;29;20075;-76
2023/10/03 01:09:33;;;;;;;9.70;6.45;;;17.50;99.90;;;;;;5103585;29;20035;-75
2023/10/03 01:12:04;;;;;;;15.98;6.55;;;17.30;99.90;;;;;;5107331;29;20035;-75
2023/10/03 01:14:37;;;;;;;14.57;6.28;;;17.40;99.90;;;;;;5108413;29;20062;-75
2023/10/03 01:17:08;;;;;;;13.05;6.70;;;17.40;99.90;;;;;;5108461;29;20067;-76
2023/10/03 01:19:40;;;;;;;15.98;6.15;;;17.60;99.90;;;;;;5108664;29;20500;-75
2023/10/03 01:22:11;;;;;;;15.98;6.80;;;17.30;99.90;;;;;;5107324;29;20020;-75
2023/10/03 01:24:43;;;;;;;13.95;6.28;;;17.40;99.90;;;;;;5108234;29;20031;-76
2023/10/03 01:27:15;;;;;;;12.70;6.43;;;17.40;99.90;;;;;;5108469;29;20027;-75
2023/10/03 01:29:45;;;;;;;13.02;6.20;;;17.50;99.90;;;;;;5108002;29;20492;-76
2023/10/03 01:32:17;;;;;;;13.13;6.10;;;17.60;99.90;;;;;;5108042;29;20035;-75
2023/10/03 01:34:48;;;;;;;12.23;6.15;;;17.50;99.90;;;;;;5107983;29;20028;-75
2023/10/03 01:37:19;;;;;;;16.42;6.40;;;17.50;99.90;;;;;;5106784;29;20027;-75
2023/10/03 01:39:50;;;;;;;13.05;6.60;;;17.50;99.90;;;;;;5108109;29;20111;-75
2023/10/03 01:42:22;;;;;;;10.30;6.18;;;17.50;99.90;;;;;;5106220;29;20171;-76
2023/10/03 01:44:53;;;;;;;11.50;6.00;;;17.50;99.90;;;;;;5107837;29;20088;-76
2023/10/03 01:47:24;;;;;;;9.43;6.18;;;17.40;99.90;;;;;;5106887;29;20110;-75
2023/10/03 01:49:55;;;;;;;12.90;6.13;;;17.30;99.90;;;;;;5107764;29;20091;-75
2023/10/03 01:52:26;;;;;;;11.35;5.75;;;17.30;99.90;;;;;;5107822;29;20404;-75
2023/10/03 01:54:57;;;;;;;13.38;5.93;;;17.30;99.90;;;;;;5106228;29;20044;-75
2023/10/03 01:57:28;;;;;;;11.68;6.20;;;17.20;99.90;;;;;;5107848;29;20039;-76
2023/10/03 01:59:59;;;;;;;13.40;5.55;;;17.10;99.90;;;;;;5107929;29;20066;-76
2023/10/03 02:02:30;;;;;;;13.98;6.30;;;17.10;99.90;;;;;;5106425;29;20591;-76
2023/10/03 02:05:01;;;;;;;12.95;5.82;;;17.10;99.90;;;;;;5106843;29;20475;-75
2023/10/03 02:07:32;;;;;;;11.88;6.40;;;17.00;99.90;;;;;;5106173;29;20114;-75
2023/10/03 02:10:03;;;;;;;12.20;6.43;;;17.00;99.90;;;;;;5106081;29;20073;-75
2023/10/03 02:12:35;;;;;;;14.65;7.47;;;17.00;99.90;;;;;;5107130;29;20353;-75
2023/10/03 02:15:09;;;;;;;10.90;7.15;;;17.10;99.90;;;;;;5107163;29;20115;-76
2023/10/03 02:17:40;;;;;;;12.57;6.75;;;17.00;99.90;;;;;;5106045;29;20020;-76
2023/10/03 02:20:20;;;;;;;14.60;7.07;;;17.10;99.90;;;;;;5107335;29;20035;-75
2023/10/03 02:22:55;;;;;;;13.32;6.68;;;17.10;99.90;;;;;;5105567;29;20032;-76
2023/10/03 02:25:28;;;;;;;13.38;7.18;;;17.10;99.90;;;;;;5107337;29;20036;-75
2023/10/03 02:28:00;;;;;;;18.35;6.95;;;17.00;99.90;;;;;;5107286;29;20041;-75
2023/10/03 02:30:31;;;;;;;11.98;6.97;;;17.00;99.90;;;;;;5106925;29;20074;-76
2023/10/03 02:33:13;;;;;;;11.68;7.15;;;16.90;99.90;;;;;;5105587;29;20028;-75
2023/10/03 02:35:47;;;;;;;13.07;6.68;;;17.00;99.90;;;;;;5112113;28;20086;-76
2023/10/03 02:38:26;;;;;;;9.15;6.45;;;16.90;99.90;;;;;;5125847;28;20035;-75
2023/10/03 02:40:59;;;;;;;13.88;6.95;;;16.90;99.90;;;;;;5110362;29;20042;-75
2023/10/03 02:43:31;;;;;;;10.80;6.97;;;16.70;99.90;;;;;;5106848;29;20039;-75
2023/10/03 02:46:07;;;;;;;13.65;6.97;;;16.80;99.90;;;;;;5105648;29;20122;-75
2023/10/03 02:48:38;;;;;;;11.98;7.22;;;16.90;99.90;;;;;;5106573;29;20030;-75
2023/10/03 02:51:10;;;;;;;12.30;6.43;;;16.80;99.90;;;;;;5106828;29;20136;-76
2023/10/03 02:53:41;;;;;;;11.60;6.22;;;16.80;99.90;;;;;;5106910;29;20444;-76
2023/10/03 02:56:15;;;;;;;16.67;6.20;;;16.80;99.90;;;;;;5106728;29;20106;-75
2023/10/03 02:58:46;;;;;;;9.85;6.68;;;16.80;99.90;;;;;;5105547;29;20024;-75
2023/10/03 03:01:19;;;;;;;15.95;6.78;;;16.50;99.90;;;;;;5105829;29;20171;-75
2023/10/03 03:03:52;;;;;;;10.68;5.82;;;16.50;99.90;;;;;;5105704;29;20031;-75
2023/10/03 03:06:31;;;;;;;11.80;6.20;;;16.40;99.90;;;;;;5105730;29;20031;-75
2023/10/03 03:09:07;;;;;;;9.73;5.72;;;16.40;99.90;;;;;;5106927;29;20028;-75
2023/10/03 03:11:48;;;;;;;11.48;5.63;;;16.40;99.90;;;;;;5106601;29;20122;-75
2023/10/03 03:14:19;;;;;;;10.32;5.75;;;16.60;99.90;;;;;;5106214;29;20044;-76
2023/10/03 03:16:50;;;;;;;12.65;6.28;;;16.50;99.90;;;;;;5105581;29;20488;-76
2023/10/03 03:19:23;;;;;;;10.50;6.07;;;16.40;99.90;;;;;;5106362;29;20039;-75
2023/10/03 03:21:57;;;;;;;9.75;5.88;;;16.50;99.90;;;;;;5104341;29;20027;-75
2023/10/03 03:24:34;;;;;;;18.20;6.30;;;16.30;99.90;;;;;;5106097;29;20372;-75
2023/10/03 03:27:11;;;;;;;11.05;5.78;;;16.20;99.90;;;;;;5106241;29;20376;-75
2023/10/03 03:30:02;;;;;;;12.25;5.90;;;16.30;99.90;;;;;;5105493;29;20028;-76
2023/10/03 03:32:32;;;;;;;9.82;5.70;;;16.40;99.90;;;;;;5105782;29;20028;-76
2023/10/03 03:35:06;;;;;;;11.43;6.13;;;16.30;99.90;;;;;;5103550;29;20043;-76
2023/10/03 03:37:37;;;;;;;10.43;5.70;;;16.40;99.90;;;;;;5104151;29;20027;-76
2023/10/03 03:40:25;;;;;;;13.13;5.93;;;16.50;99.90;;;;;;5104912;29;20050;-76
2023/10/03 03:43:06;;;;;;;9.98;5.47;;;16.50;99.90;;;;;;5105409;29;20043;-76
2023/10/03 03:45:37;;;;;;;10.50;5.97;;;16.40;99.90;;;;;;5106046;29;20024;-75
2023/10/03 03:48:09;;;;;;;11.50;6.75;;;16.50;99.90;;;;;;5105506;29;20086;-76
2023/10/03 03:50:41;;;;;;;10.35;6.25;;;16.60;99.90;;;;;;5105594;29;20031;-76
2023/10/03 03:53:12;;;;;;;11.05;6.47;;;16.60;99.90;;;;;;5105485;29;20047;-76
2023/10/03 03:55:43;;;;;;;9.30;6.05;;;16.80;99.90;;;;;;5103802;29;20032;-76
2023/10/03 03:58:18;;;;;;;11.07;5.47;;;16.70;99.90;;;;;;5104921;29;20059;-75
2023/10/03 04:00:51;;;;;;;11.43;5.18;;;16.80;99.90;;;;;;5103761;29;20364;-75
2023/10/03 04:03:23;;;;;;;13.43;6.38;;;16.90;99.90;;;;;;5105171;29;20035;-76
2023/10/03 04:05:57;;;;;;;11.00;6.25;;;17.00;99.90;;;;;;5103837;29;20066;-76
2023/10/03 04:08:27;;;;;;;14.07;6.47;;;17.10;99.90;;;;;;5104897;29;20376;-76
2023/10/03 04:10:58;;;;;;;10.32;5.97;;;17.00;99.90;;;;;;5104872;29;20039;-75
2023/10/03 04:13:30;;;;;;;11.20;6.03;;;16.90;99.90;;;;;;5104801;29;20115;-76
2023/10/03 04:16:02;;;;;;;10.82;6.45;;;16.90;99.90;;;;;;5104596;29;20479;-75
2023/10/03 04:18:34;;;;;;;14.52;6.07;;;16.80;99.90;;;;;;5104869;29;20016;-75
2023/10/03 04:21:05;;;;;;;14.00;6.07;;;16.80;99.90;;;;;;5102807;29;20082;-76
2023/10/03 04:23:36;;;;;;;16.05;7.03;;;17.00;99.90;;;;;;5102572;29;20027;-76
2023/10/03 04:26:08;;;;;;;9.75;6.15;;;17.10;99.90;;;;;;5104020;29;20031;-76
2023/10/03 04:28:39;;;;;;;10.55;6.40;;;17.20;99.90;;;;;;5103708;29;20110;-76
2023/10/03 04:31:09;;;;;;;10.40;6.80;;;17.20;99.90;;;;;;5103814;29;20112;-75
2023/10/03 04:33:41;;;;;;;13.85;6.32;;;17.20;99.90;;;;;;5103683;29;20135;-76
2023/10/03 04:36:14;;;;;;;10.75;6.28;;;17.40;99.90;;;;;;5104696;29;20024;-76
2023/10/03 04:38:45;;;;;;;11.27;6.68;;;17.40;99.90;;;;;;5103588;29;20873;-75
2023/10/03 04:41:17;;;;;;;12.57;6.75;;;17.50;99.90;;;;;;5104817;29;20036;-76
2023/10/03 04:43:49;;;;;;;8.85;6.50;;;17.50;99.90;;;;;;5104718;29;20420;-76
2023/10/03 04:46:20;;;;;;;8.57;6.65;;;17.50;99.90;;;;;;5108018;29;20467;-75
2023/10/03 04:48:51;;;;;;;10.52;6.95;;;17.60;99.90;;;;;;5108790;29;20078;-75
2023/10/03 04:51:22;;;;;;;12.73;7.32;;;17.60;99.90;;;;;;5108668;29;20379;-76
2023/10/03 04:53:52;;;;;;;10.73;7.57;;;17.70;99.90;;;;;;5107275;29;20391;-76
2023/10/03 04:56:23;;;;;;;12.68;7.97;;;17.80;99.90;;;;;;5108917;29;20111;-76
2023/10/03 04:58:55;;;;;;;11.45;8.20;;;17.80;99.90;;;;;;5107637;29;20035;-76
2023/10/03 05:01:26;;;;;;;12.95;8.77;;;17.90;99.90;;;;;;5107358;29;20035;-76
2023/10/03 05:03:56;;;;;;;14.77;8.70;;;18.00;99.90;;;;;;5108394;29;20031;-75
2023/10/03 05:06:27;;;;;;;13.80;7.53;;;18.00;99.90;;;;;;5107002;29;20443;-76
2023/10/03 05:08:58;;;;;;;12.55;7.07;;;18.10;99.90;;;;;;5108397;29;20028;-75
2023/10/03 05:11:30;;;;;;;10.55;7.38;;;18.10;99.90;;;;;;5108079;29;20456;-76
2023/10/03 05:14:01;;;;;;;14.80;8.30;;;18.20;99.90;;;;;;5107495;29;20119;-76
2023/10/03 05:16:34;;;;;;;10.95;6.47;;;18.30;99.90;;;;;;5106365;29;20036;-76
2023/10/03 05:19:06;;;;;;;13.50;7.47;;;18.30;99.90;;;;;;5107199;29;20031;-76
2023/10/03 05:21:37;;;;;;;13.38;7.05;;;18.30;99.90;;;;;;5106982;29;20674;-76
2023/10/03 05:24:10;;;;;;;10.15;7.32;;;18.40;99.90;;;;;;5107110;29;20028;-76
2023/10/03 05:26:41;;;;;;;10.40;7.60;;;18.40;99.90;;;;;;5107266;29;20020;-76
2023/10/03 05:29:12;;;;;;;11.80;6.88;;;18.40;99.90;;;;;;5107006;29;20054;-76
2023/10/03 05:31:43;;;;;;;12.52;7.07;;;18.50;99.90;;;;;;5107879;29;20047;-75
2023/10/03 05:34:15;;;;;;;15.43;7.00;;;18.50;99.90;;;;;;5108150;29;20032;-76
2023/10/03 05:36:49;;;;;;;12.18;7.50;;;18.50;99.90;;;;;;5107968;29;20030;-76
2023/10/03 05:39:20;;;;;;;11.48;7.88;;;18.60;99.90;;;;;;5108156;29;20063;-76
2023/10/03 05:41:56;;;;;;;15.88;8.57;;;18.70;99.90;;;;;;5107320;29;20550;-77
2023/10/03 05:44:27;;;;;;;9.63;7.38;;;18.70;99.90;;;;;;5107904;29;20083;-75
2023/10/03 05:46:59;;;;;;;12.07;7.68;;;18.80;99.90;;;;;;5107883;29;20047;-76
2023/10/03 05:49:30;;;;;;;10.90;7.47;;;18.80;99.90;;;;;;5107760;29;20047;-76
2023/10/03 05:52:01;;;;;;;10.80;6.45;;;18.90;99.90;;;;;;5107637;29;20436;-76
2023/10/03 05:54:32;;;;;;;10.57;6.60;;;19.00;99.90;;;;;;5107513;29;20114;-76
2023/10/03 05:57:03;;;;;;;15.23;6.78;;;19.10;99.90;;;;;;5106689;29;20031;-75
2023/10/03 05:59:34;;;;;;;10.30;5.70;;;19.40;99.90;;;;;;5107542;29;20027;-76
2023/10/03 06:02:05;;;;;;;15.93;8.18;;;19.40;99.90;;;;;;5107447;29;20035;-76
2023/10/03 06:04:38;;;;;;;20.60;7.88;;;19.50;99.90;;;;;;5106253;29;20039;-76
2023/10/03 06:07:09;;;;;;;13.32;7.72;;;19.50;99.90;;;;;;5106122;29;20023;-77
2023/10/03 06:09:40;;;;;;;12.02;7.55;;;19.50;99.90;;;;;;5106605;29;20097;-76
2023/10/03 06:12:11;;;;;;;12.02;7.78;;;19.40;99.90;;;;;;5104920;29;20179;-76
2023/10/03 06:14:42;;;;;;;12.02;8.27;;;19.50;99.90;;;;;;5106026;29;20119;-76
2023/10/03 06:17:13;;;;;;;11.02;9.05;;;19.60;99.90;;;;;;5106242;29;20012;-76
2023/10/03 06:19:44;;;;;;;11.60;8.75;;;19.70;99.90;;;;;;5104760;29;20395;-76
2023/10/03 06:22:15;;;;;;;12.52;8.00;;;19.70;99.90;;;;;;5104763;29;20555;-76
2023/10/03 06:24:46;;;;;;;12.25;8.18;;;19.80;99.90;;;;;;5104970;29;20086;-77
2023/10/03 06:27:18;;;;;;;12.57;8.77;;;20.00;99.90;;;;;;5105401;29;20476;-75
2023/10/03 06:29:49;;;;;;;11.98;7.88;;;20.20;99.90;;;;;;5107114;29;20042;-76
2023/10/03 06:32:20;;;;;;;14.27;8.20;;;20.10;99.90;;;;;;5105739;29;20056;-76
2023/10/03 06:34:52;;;;;;;16.02;8.18;;;20.10;99.90;;;;;;5106837;29;20114;-76
2023/10/03 06:37:24;;;;;;;12.93;8.20;;;20.10;99.90;;;;;;5106671;29;20039;-76
2023/10/03 06:39:54;;;;;;;14.18;7.70;;;20.10;99.90;;;;;;5105643;29;20042;-76
2023/10/03 06:42:25;;;;;;;12.25;7.75;;;20.10;99.90;;;;;;5106603;28;20547;-75
2023/10/03 06:44:56;;;;;;;11.75;8.80;;;20.10;99.90;;;;;;5106766;29;20036;-76
2023/10/03 06:47:27;;;;;;;11.15;8.35;;;20.10;99.90;;;;;;5106797;29;20028;-76
2023/10/03 06:49:57;;;;;;;11.80;8.23;;;20.20;99.90;;;;;;5106675;29;20039;-76
2023/10/03 06:52:28;;;;;;;15.57;8.70;;;20.20;99.90;;;;;;5106574;29;20031;-76
2023/10/03 06:54:59;;;;;;;17.13;7.75;;;20.30;99.90;;;;;;5106219;29;20436;-76
2023/10/03 06:57:32;;;;;;;11.65;8.65;;;20.40;99.90;;;;;;5105330;29;20031;-76
2023/10/03 07:00:03;;;;;;;13.63;8.30;;;20.40;99.90;;;;;;5105194;29;20040;-76
2023/10/03 07:02:34;;;;;;;14.98;8.60;;;20.40;99.90;;;;;;5105841;29;20071;-76
2023/10/03 07:05:06;;;;;;;9.98;7.97;;;20.50;99.90;;;;;;5104529;29;20432;-75
2023/10/03 07:07:37;;;;;;;13.80;8.50;;;20.40;99.90;;;;;;5105829;29;20024;-75
2023/10/03 07:10:09;;;;;;;10.95;8.00;;;20.40;99.90;;;;;;5103994;29;20039;-76
2023/10/03 07:12:39;;;;;;;10.00;7.53;;;20.40;99.90;;;;;;5104937;29;20119;-76
2023/10/03 07:15:13;;;;;;;10.52;7.53;;;20.40;99.90;;;;;;5104847;29;20138;-76
2023/10/03 07:17:44;;;;;;;11.38;6.90;;;20.30;99.90;;;;;;5105417;29;20413;-78
2023/10/03 07:20:15;;;;;;;12.35;7.53;;;20.20;99.90;;;;;;5105288;29;20035;-78
2023/10/03 07:22:47;;;;;;;12.25;7.93;;;20.40;99.90;;;;;;5105272;29;20520;-77
2023/10/03 07:25:18;;;;;;;12.73;8.20;;;20.40;99.90;;;;;;5104935;29;20038;-78
2023/10/03 07:27:49;;;;;;;11.63;6.97;;;20.40;99.90;;;;;;5106508;29;20034;-78
2023/10/03 07:30:20;;;;;;;15.93;8.65;;;20.40;99.90;;;;;;5106163;29;20036;-77
2023/10/03 07:32:51;;;;;;;16.50;8.07;;;20.50;99.90;;;;;;5104479;29;20035;-78
2023/10/03 07:35:22;;;;;;;11.00;7.97;;;20.60;99.90;;;;;;5105755;29;20031;-78
2023/10/03 07:37:53;;;;;;;13.07;7.75;;;20.60;99.90;;;;;;5106044;29;20395;-78
2023/10/03 07:40:27;;;;;;;13.45;8.32;;;20.70;99.90;;;;;;5104449;29;20023;-77
2023/10/03 07:42:59;;;;;;;10.27;8.77;;;20.80;99.90;;;;;;5105578;29;20036;-78
2023/10/03 07:45:29;;;;;;;11.75;8.00;;;20.90;99.90;;;;;;5105811;29;20448;-75
2023/10/03 07:48:04;;;;;;;10.27;7.72;;;21.00;99.90;;;;;;5104668;29;20090;-76
2023/10/03 07:50:37;;;;;;;10.73;7.18;;;21.00;99.90;;;;;;5105663;29;20035;-75
2023/10/03 07:53:11;;;;;;;12.57;7.30;;;20.80;99.90;;;;;;5105606;29;20150;-75
2023/10/03 07:55:42;;;;;;;13.45;8.13;;;21.00;99.90;;;;;;5104080;29;20493;-74
2023/10/03 07:58:17;;;;;;;12.23;8.23;;;21.00;99.90;;;;;;5104405;29;20024;-75
2023/10/03 08:00:49;;;;;;;11.43;7.25;;;21.20;99.90;;;;;;5104039;29;20087;-75
2023/10/03 08:03:20;;;;;;;10.35;7.35;;;21.10;99.90;;;;;;5105074;29;20023;-76
2023/10/03 08:05:57;;;;;;;13.63;8.55;;;21.20;99.90;;;;;;5103280;29;20055;-76
2023/10/03 08:08:27;;;;;;;13.65;8.18;;;21.10;99.90;;;;;;5099917;29;20023;-76
2023/10/03 08:10:58;;;;;;;13.25;7.93;;;21.30;99.90;;;;;;5104113;29;20676;-76
2023/10/03 08:13:29;;;;;;;17.95;9.63;;;21.30;99.90;;;;;;5102390;29;20060;-76
2023/10/03 08:16:00;;;;;;;13.30;9.45;;;21.40;99.90;;;;;;5104276;29;20089;-75
2023/10/03 08:18:36;;;;;;;13.43;9.65;;;21.60;99.90;;;;;;5104435;29;20368;-75
2023/10/03 08:21:08;;;;;;;17.63;9.27;;;21.80;99.90;;;;;;5103713;29;20032;-78
2023/10/03 08:23:40;;;;;;;13.85;9.75;;;21.80;99.90;;;;;;5103865;29;20028;-76
2023/10/03 08:26:10;;;;;;;15.23;9.52;;;21.80;99.90;;;;;;5104598;29;20039;-77
2023/10/03 08:28:41;;;;;;;17.10;10.13;;;21.80;99.90;;;;;;5105194;29;20490;-78
2023/10/03 08:31:12;;;;;;;14.43;9.82;;;21.60;99.90;;;;;;5104622;29;20032;-77
2023/10/03 08:33:44;;;;;;;14.70;9.45;;;21.90;99.90;;;;;;5105451;29;20035;-78
2023/10/03 08:36:14;;;;;;;17.65;10.05;;;21.90;99.90;;;;;;5104253;29;20020;-78
2023/10/03 08:38:45;;;;;;;14.25;10.23;;;21.90;99.90;;;;;;5105724;29;20798;-78
2023/10/03 08:41:26;;;;;;;15.90;10.57;;;21.70;99.90;;;;;;5104044;29;20059;-79
2023/10/03 08:44:00;;;;;;;11.18;9.93;;;21.70;99.90;;;;;;5103907;29;20086;-76
2023/10/03 08:46:36;;;;;;;12.02;10.80;;;21.60;99.90;;;;;;5105244;29;20554;-77
2023/10/03 08:49:10;;;;;;;13.82;10.48;;;21.70;99.90;;;;;;5105413;29;20035;-76
2023/10/03 08:51:42;;;;;;;12.35;10.80;;;21.70;99.90;;;;;;5105027;29;20461;-75
2023/10/03 08:54:14;;;;;;;16.65;9.80;;;21.60;99.90;;;;;;5104961;29;20040;-76
2023/10/03 08:56:44;;;;;;;14.55;10.80;;;21.70;99.90;;;;;;5104372;29;20046;-76
2023/10/03 08:59:15;;;;;;;15.82;10.30;;;21.60;99.90;;;;;;5104235;29;20106;-75
2023/10/03 09:01:46;;;;;;;18.42;11.82;;;21.60;99.90;;;;;;5104081;29;20461;-76
2023/10/03 09:04:17;;;;;;;13.13;10.07;;;21.70;99.90;;;;;;5104737;29;20024;-76
2023/10/03 09:06:50;;;;;;;15.48;10.70;;;21.80;99.90;;;;;;5104918;29;20035;-78
2023/10/03 09:09:21;;;;;;;14.75;10.55;;;22.00;99.90;;;;;;5104781;29;20384;-78
2023/10/03 09:11:59;;;;;;;14.40;9.65;;;22.20;99.90;;;;;;5104381;29;20056;-76
2023/10/03 09:14:30;;;;;;;14.02;8.40;;;22.40;99.90;;;;;;5104737;29;20044;-76
2023/10/03 09:17:03;;;;;;;15.45;9.10;;;22.40;99.90;;;;;;5105192;29;20037;-79
2023/10/03 09:19:45;;;;;;;17.83;9.30;;;22.50;99.90;;;;;;5105321;29;20103;-79
2023/10/03 09:22:30;;;;;;;14.60;9.32;;;22.50;99.90;;;;;;5103836;29;20122;-76
2023/10/03 09:25:01;;;;;;;15.65;8.30;;;22.40;99.90;;;;;;5105201;29;20098;-79
2023/10/03 09:27:32;;;;;;;11.77;8.80;;;22.40;99.90;;;;;;5104713;29;20075;-77
2023/10/03 09:30:12;;;;;;;11.88;8.57;;;22.30;99.90;;;;;;5104582;29;20041;-78
2023/10/03 09:32:48;;;;;;;;;;;22.50;99.90;;;;;;5106816;29;20016;-76
2023/10/03 09:35:19;;;;;;;11.90;7.45;;;22.60;99.90;;;;;;5108414;29;19913;-78
2023/10/03 09:37:56;;;;;;;11.27;7.75;;;22.50;99.90;;;;;;5107917;29;20027;-77
2023/10/03 09:40:27;;;;;;;14.38;7.68;;;22.70;99.90;;;;;;5108080;29;20026;-78
2023/10/03 09:42:59;;;;;;;12.15;7.15;;;22.80;99.90;;;;;;5106532;29;20047;-78
2023/10/03 09:45:31;;;;;;;17.75;8.68;;;23.00;99.90;;;;;;5107863;29;20046;-76
2023/10/03 09:48:06;;;;;;;9.68;6.93;;;23.00;99.90;;;;;;5108314;29;20035;-79
2023/10/03 09:50:39;;;;;;;12.90;7.40;;;23.10;99.90;;;;;;5107800;29;20023;-79
2023/10/03 09:53:15;;;;;;;16.25;7.63;;;22.90;99.90;;;;;;5107582;29;20024;-79
2023/10/03 09:55:49;;;;;;;15.15;7.90;;;22.70;99.90;;;;;;5106201;29;20027;-79
2023/10/03 09:58:24;;;;;;;9.95;7.43;;;22.50;99.90;;;;;;5106105;29;20055;-79
2023/10/03 10:00:55;;;;;;;12.57;7.72;;;22.60;99.90;;;;;;5105838;29;20110;-80
2023/10/03 10:03:38;;;;;;;12.13;7.50;;;22.80;99.90;;;;;;5105803;29;20123;-79
2023/10/03 10:06:37;;;;;;;14.82;7.60;;;22.70;99.90;;;;;;5106136;29;20039;-79
2023/10/03 10:09:23;;;;;;;11.80;7.90;;;22.70;99.90;;;;;;5101108;29;20032;-79
2023/10/03 10:12:10;;;;;;;13.70;7.93;;;22.50;99.90;;;;;;5107405;29;20035;-79
2023/10/03 10:15:14;;;;;;;13.18;8.98;;;22.50;99.90;;;;;;5106014;29;20075;-79
2023/10/03 10:17:51;;;;;;;14.13;7.88;;;22.40;99.90;;;;;;5081320;29;20122;-79
2023/10/03 10:20:37;;;;;;;13.07;7.85;;;22.30;99.90;;;;;;5107626;29;20412;-79
2023/10/03 10:25:49;;;;;;;16.23;8.88;;;22.30;99.90;;;;;;5107597;29;20387;-75
2023/10/03 10:28:26;;;;;;;13.50;7.72;;;22.30;99.90;;;;;;5106045;29;20834;-76
2023/10/03 10:31:21;;;;;;;13.15;7.35;;;22.80;99.90;;;;;;5098582;29;20114;-75
2023/10/03 10:34:30;;;;;;;12.10;7.60;;;23.00;99.90;;;;;;5106924;29;20162;-76
2023/10/03 10:37:09;;;;;;;14.68;7.88;;;22.70;99.90;;;;;;5105928;29;20031;-79
2023/10/03 10:39:57;;;;;;;11.87;7.77;;;22.90;99.90;;;;;;5099588;29;20031;-78
2023/10/03 10:42:30;;;;;;;15.02;7.20;;;23.00;99.90;;;;;;5104007;29;20097;-79
2023/10/03 10:45:09;;;;;;;12.52;8.15;;;22.80;99.90;;;;;;5106403;29;20126;-79
2023/10/03 10:47:45;;;;;;;12.75;6.85;;;22.50;99.90;;;;;;5102893;29;20641;-78
2023/10/03 10:50:21;;;;;;;12.25;8.07;;;22.60;99.90;;;;;;5091262;29;20040;-79
2023/10/03 10:53:02;;;;;;;12.40;7.38;;;22.50;99.90;;;;;;5104926;29;20028;-79
2023/10/03 10:55:33;;;;;;;11.50;7.38;;;22.50;99.90;;;;;;5104787;29;20027;-78
2023/10/03 10:58:12;;;;;;;13.52;7.22;;;22.50;99.90;;;;;;5106397;29;20368;-79
2023/10/03 11:00:43;;;;;;;13.18;7.85;;;22.90;99.90;;;;;;5106350;29;20027;-76
2023/10/03 11:03:21;;;;;;;11.95;6.45;;;22.80;99.90;;;;;;5106763;29;20107;-78
2023/10/03 11:05:55;;;;;;;10.70;6.63;;;22.90;99.90;;;;;;5105685;29;20043;-81
2023/10/03 11:08:25;;;;;;;11.07;6.38;;;22.90;99.90;;;;;;5107049;29;20020;-79
2023/10/03 11:10:56;;;;;;;10.98;7.55;;;23.10;99.90;;;;;;5108178;29;20039;-81
2023/10/03 11:13:27;;;;;;;15.38;7.78;;;23.00;99.90;;;;;;5105640;29;20079;-78
2023/10/03 11:16:00;;;;;;;42.97;9.38;;;22.70;99.90;;;;;;5106512;29;20464;-78
2023/10/03 11:18:32;;;;;;;20.73;7.25;;;22.70;99.90;;;;;;5107793;29;20500;-79
2023/10/03 11:21:03;;;;;;;12.13;6.93;;;22.60;99.90;;;;;;5107805;29;20027;-78
2023/10/03 11:23:34;;;;;;;13.30;6.90;;;22.70;99.90;;;;;;5107517;29;20169;-80
2023/10/03 11:26:05;;;;;;;13.23;7.80;;;22.90;99.90;;;;;;5107655;29;20046;-79
2023/10/03 11:28:51;;;;;;;9.13;6.63;;;22.70;99.90;;;;;;5107584;29;20052;-79
2023/10/03 11:31:22;;;;;;;13.25;7.38;;;22.50;99.90;;;;;;5107578;29;20027;-80
2023/10/03 11:33:59;;;;;;;16.05;7.45;;;22.40;99.90;;;;;;5107266;29;20026;-79
2023/10/03 11:36:41;;;;;;;27.63;7.53;;;22.40;99.90;;;;;;5106091;29;20038;-78
2023/10/03 11:39:23;;;;;;;12.77;7.30;;;22.50;99.90;;;;;;5106281;29;20047;-79
2023/10/03 11:41:54;;;;;;;13.63;7.20;;;22.70;99.90;;;;;;5106987;29;20038;-79
2023/10/03 11:44:27;;;;;;;13.13;6.25;;;22.70;99.90;;;;;;5107241;29;20031;-79
2023/10/03 11:46:58;;;;;;;15.20;7.00;;;22.70;99.90;;;;;;5106698;29;20368;-79
2023/10/03 11:49:28;;;;;;;11.93;6.80;;;22.70;99.90;;;;;;5103715;29;20111;-76
2023/10/03 11:51:59;;;;;;;14.63;7.70;;;22.60;99.90;;;;;;5104020;29;20059;-77
2023/10/03 11:54:31;;;;;;;10.38;6.55;;;22.40;99.90;;;;;;5105100;29;20359;-78
2023/10/03 11:57:02;;;;;;;14.05;6.82;;;22.30;99.90;;;;;;5105519;29;20059;-80
2023/10/03 11:59:33;;;;;;;12.68;7.30;;;22.30;99.90;;;;;;5105098;29;20150;-78
2023/10/03 12:02:06;;;;;;;14.18;6.90;;;22.50;99.90;;;;;;5104610;29;20193;-75
2023/10/03 12:04:38;;;;;;;12.52;7.63;;;22.90;99.90;;;;;;5105897;29;20034;-78
2023/10/03 12:07:11;;;;;;;17.15;8.02;;;23.20;99.90;;;;;;5105864;29;20027;-77
2023/10/03 12:09:43;;;;;;;10.48;7.43;;;23.10;99.90;;;;;;5101323;29;20365;-79
2023/10/03 12:12:13;;;;;;;10.77;7.25;;;22.90;99.90;;;;;;5105217;29;20030;-75
2023/10/03 12:14:45;;;;;;;10.10;7.10;;;22.90;99.90;;;;;;5105378;29;20051;-78
2023/10/03 12:17:16;;;;;;;15.55;8.48;;;22.90;99.90;;;;;;5105169;29;20055;-76
2023/10/03 12:19:47;;;;;;;12.23;9.02;;;22.90;99.90;;;;;;5105145;29;20074;-75
2023/10/03 12:22:18;;;;;;;11.18;8.40;;;22.80;99.90;;;;;;5105366;29;20047;-76
2023/10/03 12:24:49;;;;;;;12.93;8.65;;;22.70;99.90;;;;;;5103781;29;20424;-78
2023/10/03 12:27:20;;;;;;;16.67;9.43;;;22.80;99.90;;;;;;5104789;29;20066;-77
2023/10/03 12:29:51;;;;;;;14.10;8.82;;;22.90;99.90;;;;;;5104778;29;20051;-77
2023/10/03 12:32:22;;;;;;;12.20;8.98;;;23.20;99.90;;;;;;5105066;29;20020;-77
2023/10/03 12:34:53;;;;;;;14.40;9.25;;;23.60;99.90;;;;;;5103562;29;20035;-77
2023/10/03 12:37:23;;;;;;;16.45;9.45;;;23.40;99.90;;;;;;5103788;29;20032;-81
2023/10/03 12:39:55;;;;;;;15.15;9.20;;;23.60;99.90;;;;;;5106103;29;20042;-79
2023/10/03 12:42:28;;;;;;;13.40;9.05;;;23.50;99.90;;;;;;5104923;29;20036;-79
2023/10/03 12:45:03;;;;;;;17.15;9.80;;;23.60;99.90;;;;;;5106430;29;20075;-79
2023/10/03 12:47:35;;;;;;;13.70;8.90;;;23.70;99.90;;;;;;5105221;29;20118;-78
2023/10/03 12:50:07;;;;;;;13.20;8.63;;;23.90;99.90;;;;;;5106396;29;20724;-79
2023/10/03 12:52:40;;;;;;;10.05;8.05;;;23.80;99.90;;;;;;5106294;29;20024;-79
2023/10/03 12:55:11;;;;;;;13.70;7.45;;;23.80;99.90;;;;;;5105085;29;20032;-79
2023/10/03 12:57:42;;;;;;;12.23;7.93;;;23.50;99.90;;;;;;5105080;29;20098;-79
2023/10/03 13:00:19;;;;;;;13.10;8.00;;;23.30;99.90;;;;;;5105867;29;20066;-80
2023/10/03 13:02:51;;;;;;;10.60;8.15;;;23.20;99.90;;;;;;5106156;29;20028;-80
2023/10/03 13:05:23;;;;;;;15.07;9.48;;;23.10;99.90;;;;;;5104805;29;20043;-80
2023/10/03 13:07:54;;;;;;;15.25;9.77;;;23.00;99.90;;;;;;5108908;29;20114;-79
2023/10/03 13:10:27;;;;;;;13.38;9.27;;;23.20;99.90;;;;;;5109820;29;20448;-80